createdAt,value
2023-03-05T00:01:57.832Z,3.16
2023-03-05T00:04:25.036Z,3.11
2023-03-05T00:06:52.295Z,3.10
2023-03-05T00:09:19.519Z,3.11
2023-03-05T00:11:46.882Z,3.10
2023-03-05T00:14:14.332Z,3.05
2023-03-05T00:16:43.110Z,3.03
2023-03-05T00:19:10.656Z,3.03
2023-03-05T00:21:40.321Z,3.00
2023-03-05T00:24:11.267Z,2.98
2023-03-05T00:26:39.295Z,3.02
2023-03-05T00:29:07.870Z,3.02
2023-03-05T00:31:36.529Z,3.03
2023-03-05T00:34:07.522Z,3.02
2023-03-05T00:36:35.572Z,3.02
2023-03-05T00:39:02.803Z,2.99
2023-03-05T00:41:30.103Z,2.99
2023-03-05T00:43:57.319Z,2.96
2023-03-05T00:46:24.946Z,2.96
2023-03-05T00:48:52.465Z,2.95
2023-03-05T00:51:21.576Z,2.91
2023-03-05T00:53:49.768Z,2.90
2023-03-05T00:56:17.290Z,2.92
2023-03-05T00:58:44.656Z,2.92
2023-03-05T01:01:12.062Z,2.94
2023-03-05T01:03:39.341Z,2.86
2023-03-05T01:06:09.387Z,2.89
2023-03-05T01:08:38.219Z,2.85
2023-03-05T01:11:06.284Z,2.80
2023-03-05T01:13:33.640Z,2.78
2023-03-05T01:16:01.172Z,2.78
2023-03-05T01:18:29.076Z,2.75
2023-03-05T01:20:56.542Z,2.71
2023-03-05T01:23:23.853Z,2.70
2023-03-05T01:25:55.101Z,2.61
2023-03-05T01:28:22.844Z,2.63
2023-03-05T01:30:50.116Z,2.64
2023-03-05T01:33:17.729Z,2.66
2023-03-05T01:35:46.249Z,2.65
2023-03-05T01:38:13.643Z,2.56
2023-03-05T01:40:42.515Z,2.64
2023-03-05T01:43:23.386Z,2.66
2023-03-05T01:46:23.472Z,2.66
2023-03-05T01:48:54.475Z,2.73
2023-03-05T01:51:26.754Z,2.74
2023-03-05T01:53:56.134Z,2.74
2023-03-05T01:56:23.969Z,2.81
2023-03-05T01:58:54.104Z,2.84
2023-03-05T02:01:21.509Z,2.84
2023-03-05T02:03:49.049Z,2.80
2023-03-05T02:06:17.564Z,2.77
2023-03-05T02:08:44.857Z,2.83
2023-03-05T02:11:12.169Z,2.82
2023-03-05T02:13:39.429Z,2.85
2023-03-05T02:16:08.321Z,2.83
2023-03-05T02:18:35.608Z,2.88
2023-03-05T02:21:05.690Z,2.82
2023-03-05T02:23:35.602Z,2.86
2023-03-05T02:26:03.874Z,2.84
2023-03-05T02:28:35.001Z,2.88
2023-03-05T02:31:02.330Z,2.85
2023-03-05T02:33:29.602Z,2.82
2023-03-05T02:35:56.825Z,2.84
2023-03-05T02:38:25.453Z,2.87
2023-03-05T02:40:53.008Z,2.84
2023-03-05T02:43:20.268Z,2.85
2023-03-05T02:45:47.872Z,2.87
2023-03-05T02:48:15.110Z,2.86
2023-03-05T02:50:43.876Z,2.85
2023-03-05T02:53:11.172Z,2.80
2023-03-05T02:55:40.576Z,2.76
2023-03-05T02:58:07.833Z,2.71
2023-03-05T03:00:35.133Z,2.64
2023-03-05T03:03:02.415Z,2.56
2023-03-05T03:05:30.021Z,2.57
2023-03-05T03:07:57.322Z,2.59
2023-03-05T03:10:24.601Z,2.49
2023-03-05T03:12:53.274Z,2.48
2023-03-05T03:15:20.723Z,2.44
2023-03-05T03:17:48.355Z,2.42
2023-03-05T03:20:17.214Z,2.47
2023-03-05T03:22:45.678Z,2.50
2023-03-05T03:25:15.004Z,2.50
2023-03-05T03:27:48.251Z,2.52
2023-03-05T03:30:17.310Z,2.52
2023-03-05T03:32:44.514Z,2.51
2023-03-05T03:35:12.856Z,2.50
2023-03-05T03:37:40.280Z,2.47
2023-03-05T03:40:08.775Z,2.53
2023-03-05T03:42:36.061Z,2.49
2023-03-05T03:45:04.203Z,2.46
2023-03-05T03:47:32.717Z,2.43
2023-03-05T03:50:00.000Z,2.36
2023-03-05T03:52:27.218Z,2.38
2023-03-05T03:54:54.628Z,2.38
2023-03-05T03:57:21.815Z,2.38
2023-03-05T03:59:49.220Z,2.38
2023-03-05T04:02:16.477Z,2.33
2023-03-05T04:04:45.141Z,2.35
2023-03-05T04:07:12.379Z,2.36
2023-03-05T04:09:39.646Z,2.36
2023-03-05T04:12:07.553Z,2.30
2023-03-05T04:14:34.787Z,2.33
2023-03-05T04:17:02.054Z,2.36
2023-03-05T04:19:29.240Z,2.36
2023-03-05T04:21:58.350Z,2.41
2023-03-05T04:24:25.792Z,2.42
2023-03-05T04:26:53.095Z,2.41
2023-03-05T04:29:20.524Z,2.44
2023-03-05T04:31:47.713Z,2.37
2023-03-05T04:34:14.910Z,2.37
2023-03-05T04:36:42.157Z,2.27
2023-03-05T04:39:10.744Z,2.24
2023-03-05T04:41:38.087Z,2.31
2023-03-05T04:44:05.567Z,2.30
2023-03-05T04:46:32.882Z,2.28
2023-03-05T04:49:00.338Z,2.30
2023-03-05T04:51:27.630Z,2.29
2023-03-05T04:53:57.275Z,2.25
2023-03-05T04:56:25.999Z,2.23
2023-03-05T04:58:53.203Z,2.25
2023-03-05T05:01:21.781Z,2.20
2023-03-05T05:03:49.089Z,2.25
2023-03-05T05:06:16.289Z,2.25
2023-03-05T05:08:43.543Z,2.15
2023-03-05T05:11:13.750Z,2.15
2023-03-05T05:13:42.366Z,2.15
2023-03-05T05:16:10.013Z,2.18
2023-03-05T05:18:37.282Z,2.15
2023-03-05T05:21:07.743Z,2.20
2023-03-05T05:23:35.659Z,2.08
2023-03-05T05:26:05.635Z,2.17
2023-03-05T05:28:33.452Z,2.17
2023-03-05T05:31:06.996Z,2.12
2023-03-05T05:33:34.269Z,2.17
2023-03-05T05:36:03.365Z,2.18
2023-03-05T05:38:30.593Z,2.23
2023-03-05T05:41:03.080Z,2.20
2023-03-05T05:43:30.365Z,2.18
2023-03-05T05:46:00.417Z,2.21
2023-03-05T05:48:30.675Z,2.18
2023-03-05T05:50:58.210Z,2.08
2023-03-05T05:53:25.948Z,2.12
2023-03-05T05:55:53.120Z,2.07
2023-03-05T05:58:20.548Z,2.03
2023-03-05T06:00:47.871Z,2.01
2023-03-05T06:03:15.208Z,2.02
2023-03-05T06:05:44.490Z,2.06
2023-03-05T06:08:11.823Z,2.04
2023-03-05T06:10:39.030Z,2.08
2023-03-05T06:13:06.381Z,2.05
2023-03-05T06:15:36.001Z,2.04
2023-03-05T06:18:03.568Z,2.03
2023-03-05T06:20:30.756Z,2.00
2023-03-05T06:22:59.404Z,1.95
2023-03-05T06:25:26.692Z,1.92
2023-03-05T06:27:53.956Z,1.92
2023-03-05T06:30:21.208Z,1.89
2023-03-05T06:32:48.553Z,1.87
2023-03-05T06:35:15.893Z,1.88
2023-03-05T06:37:43.062Z,1.91
2023-03-05T06:40:13.287Z,1.86
2023-03-05T06:42:42.713Z,1.91
2023-03-05T06:45:10.804Z,1.91
2023-03-05T06:47:38.020Z,1.97
2023-03-05T06:50:06.329Z,1.98
2023-03-05T06:52:33.533Z,1.98
2023-03-05T06:55:00.754Z,1.98
2023-03-05T06:57:29.388Z,2.02
2023-03-05T06:59:56.812Z,2.04
2023-03-05T07:02:24.131Z,2.07
2023-03-05T07:04:51.366Z,2.08
2023-03-05T07:07:18.505Z,2.12
2023-03-05T07:09:45.644Z,2.16
2023-03-05T07:12:12.930Z,2.18
2023-03-05T07:14:41.479Z,2.20
2023-03-05T07:17:08.663Z,2.19
2023-03-05T07:19:35.818Z,2.19
2023-03-05T07:22:02.978Z,2.18
2023-03-05T07:24:30.267Z,2.23
2023-03-05T07:26:57.480Z,2.25
2023-03-05T07:29:25.172Z,2.31
2023-03-05T07:31:53.950Z,2.35
2023-03-05T07:34:21.505Z,2.39
2023-03-05T07:36:50.956Z,2.45
2023-03-05T07:39:18.720Z,2.42
2023-03-05T07:41:48.449Z,2.55
2023-03-05T07:44:16.178Z,2.56
2023-03-05T07:46:46.218Z,2.63
2023-03-05T07:49:14.825Z,2.66
2023-03-05T07:51:42.240Z,2.77
2023-03-05T07:54:10.518Z,2.82
2023-03-05T07:56:37.897Z,2.97
2023-03-05T07:59:07.267Z,3.07
2023-03-05T08:01:35.296Z,3.17
2023-03-05T08:04:03.460Z,3.30
2023-03-05T08:06:33.308Z,3.43
2023-03-05T08:09:00.987Z,3.53
2023-03-05T08:11:28.549Z,3.59
2023-03-05T08:13:55.944Z,3.64
2023-03-05T08:16:24.561Z,3.66
2023-03-05T08:18:54.233Z,3.76
2023-03-05T08:21:23.743Z,3.79
2023-03-05T08:23:52.512Z,3.87
2023-03-05T08:26:23.002Z,3.85
2023-03-05T08:28:50.977Z,3.90
2023-03-05T08:31:20.810Z,3.89
2023-03-05T08:33:48.648Z,3.89
2023-03-05T08:36:15.974Z,3.87
2023-03-05T08:38:43.622Z,3.86
2023-03-05T08:41:12.798Z,3.90
2023-03-05T08:43:40.255Z,3.92
2023-03-05T08:46:07.823Z,3.84
2023-03-05T08:48:35.367Z,3.86
2023-03-05T08:51:10.417Z,3.99
2023-03-05T08:53:37.788Z,4.00
2023-03-05T08:56:08.492Z,3.89
2023-03-05T08:58:37.419Z,3.91
2023-03-05T09:01:05.640Z,3.94
2023-03-05T09:03:33.272Z,4.01
2023-03-05T09:06:00.875Z,4.08
2023-03-05T09:08:30.317Z,4.23
2023-03-05T09:10:57.724Z,4.00
2023-03-05T09:13:25.633Z,4.33
2023-03-05T09:15:59.301Z,4.27
2023-03-05T09:18:26.649Z,4.38
2023-03-05T09:20:54.032Z,4.53
2023-03-05T09:23:22.045Z,4.48
2023-03-05T09:25:49.836Z,4.68
2023-03-05T09:28:17.149Z,4.75
2023-03-05T09:30:44.551Z,4.68
2023-03-05T09:33:13.216Z,4.74
2023-03-05T09:35:40.577Z,4.89
2023-03-05T09:38:07.909Z,5.03
2023-03-05T09:40:45.810Z,5.25
2023-03-05T09:43:24.624Z,5.32
2023-03-05T09:46:05.290Z,5.38
2023-03-05T09:48:49.375Z,5.51
2023-03-05T09:51:21.061Z,5.37
2023-03-05T09:53:53.731Z,5.61
2023-03-05T09:56:24.212Z,5.62
2023-03-05T09:58:56.075Z,5.40
2023-03-05T10:01:28.213Z,5.42
2023-03-05T10:03:58.593Z,5.36
2023-03-05T10:06:29.723Z,5.26
2023-03-05T10:09:04.182Z,5.33
2023-03-05T10:11:39.952Z,5.45
2023-03-05T10:14:15.333Z,5.59
2023-03-05T10:16:57.234Z,5.66
2023-03-05T10:19:35.307Z,5.65
2023-03-05T10:22:16.253Z,5.62
2023-03-05T10:24:55.104Z,5.57
2023-03-05T10:27:39.725Z,5.55
2023-03-05T10:30:22.960Z,5.80
2023-03-05T10:32:57.975Z,5.71
2023-03-05T10:35:54.049Z,5.31
2023-03-05T10:38:41.601Z,5.20
2023-03-05T10:41:22.548Z,5.11
2023-03-05T10:43:57.597Z,5.08
2023-03-05T10:46:31.448Z,5.18
2023-03-05T10:49:05.085Z,4.98
2023-03-05T10:51:40.502Z,4.57
2023-03-05T10:54:16.404Z,4.83
2023-03-05T10:56:43.705Z,4.44
2023-03-05T10:59:10.889Z,4.45
2023-03-05T11:01:38.137Z,4.67
2023-03-05T11:04:07.717Z,4.44
2023-03-05T11:06:39.758Z,4.75
2023-03-05T11:09:19.485Z,4.97
2023-03-05T11:12:09.841Z,5.19
2023-03-05T11:14:39.676Z,5.18
2023-03-05T11:17:29.103Z,5.23
2023-03-05T11:19:56.443Z,5.21
2023-03-05T11:22:25.807Z,5.24
2023-03-05T11:25:14.860Z,5.33
2023-03-05T11:27:52.003Z,5.39
2023-03-05T11:30:25.529Z,5.39
2023-03-05T11:33:07.013Z,5.72
2023-03-05T11:35:37.425Z,5.42
2023-03-05T11:38:14.897Z,5.56
2023-03-05T11:40:42.575Z,5.76
2023-03-05T11:43:14.587Z,6.14
2023-03-05T11:45:43.291Z,6.38
2023-03-05T11:48:16.264Z,6.59
2023-03-05T11:50:46.080Z,6.79
2023-03-05T11:53:20.500Z,6.83
2023-03-05T11:55:51.714Z,6.86
2023-03-05T11:58:30.930Z,6.84
2023-03-05T12:00:58.583Z,6.43
2023-03-05T12:03:30.666Z,6.54
2023-03-05T12:06:06.974Z,6.63
2023-03-05T12:08:38.411Z,6.62
2023-03-05T12:11:15.704Z,6.22
2023-03-05T12:13:45.660Z,6.28
2023-03-05T12:16:22.511Z,6.23
2023-03-05T12:19:08.538Z,6.30
2023-03-05T12:21:37.742Z,6.49
2023-03-05T12:24:36.108Z,6.42
2023-03-05T12:27:15.062Z,6.11
2023-03-05T12:29:45.313Z,6.20
2023-03-05T12:32:57.955Z,6.18
2023-03-05T12:35:28.382Z,6.19
2023-03-05T12:38:27.071Z,6.37
2023-03-05T12:41:42.231Z,6.28
2023-03-05T12:44:18.860Z,6.20
2023-03-05T12:47:06.520Z,6.05
2023-03-05T12:49:38.333Z,6.17
2023-03-05T12:52:12.567Z,6.24
2023-03-05T12:54:41.876Z,6.34
2023-03-05T12:57:18.360Z,6.07
2023-03-05T12:59:51.283Z,5.80
2023-03-05T13:02:27.098Z,5.60
2023-03-05T13:04:59.223Z,5.74
2023-03-05T13:07:26.555Z,5.81
2023-03-05T13:09:54.377Z,5.72
2023-03-05T13:12:22.835Z,5.58
2023-03-05T13:14:59.744Z,5.60
2023-03-05T13:17:33.879Z,5.14
2023-03-05T13:20:04.316Z,5.47
2023-03-05T13:22:31.702Z,5.62
2023-03-05T13:25:13.967Z,5.63
2023-03-05T13:27:42.238Z,5.63
2023-03-05T13:30:34.942Z,5.68
2023-03-05T13:33:04.117Z,5.62
2023-03-05T13:35:32.462Z,5.83
2023-03-05T13:38:00.150Z,5.93
2023-03-05T13:40:30.874Z,5.81
2023-03-05T13:43:09.802Z,5.79
2023-03-05T13:45:38.388Z,5.93
2023-03-05T13:48:06.638Z,5.98
2023-03-05T13:50:35.790Z,5.96
2023-03-05T13:53:24.558Z,6.02
2023-03-05T13:55:54.383Z,5.98
2023-03-05T13:58:44.377Z,5.97
2023-03-05T14:01:19.359Z,5.96
2023-03-05T14:03:49.455Z,6.17
2023-03-05T14:06:19.986Z,6.06
2023-03-05T14:08:50.755Z,6.15
2023-03-05T14:11:19.386Z,6.04
2023-03-05T14:13:48.016Z,6.01
2023-03-05T14:16:25.347Z,5.81
2023-03-05T14:18:55.025Z,5.76
2023-03-05T14:21:22.471Z,5.71
2023-03-05T14:23:51.921Z,5.52
2023-03-05T14:26:29.753Z,5.43
2023-03-05T14:28:59.082Z,5.42
2023-03-05T14:31:29.308Z,5.44
2023-03-05T14:34:01.628Z,5.36
2023-03-05T14:36:30.228Z,5.37
2023-03-05T14:38:57.900Z,5.18
2023-03-05T14:41:40.608Z,5.05
2023-03-05T14:44:13.128Z,5.00
2023-03-05T14:46:42.793Z,5.02
2023-03-05T14:49:10.134Z,4.93
2023-03-05T14:51:40.389Z,4.92
2023-03-05T14:54:17.319Z,4.81
2023-03-05T14:56:44.515Z,4.74
2023-03-05T14:59:11.739Z,4.78
2023-03-05T15:01:38.950Z,4.81
2023-03-05T15:04:07.447Z,4.82
2023-03-05T15:06:37.622Z,4.86
2023-03-05T15:09:07.144Z,4.84
2023-03-05T15:11:34.618Z,4.93
2023-03-05T15:14:01.819Z,5.03
2023-03-05T15:16:32.100Z,5.06
2023-03-05T15:18:59.413Z,5.13
2023-03-05T15:21:27.987Z,5.21
2023-03-05T15:23:55.177Z,5.26
2023-03-05T15:26:23.517Z,5.25
2023-03-05T15:28:50.763Z,5.25
2023-03-05T15:31:17.962Z,5.26
2023-03-05T15:33:45.191Z,5.21
2023-03-05T15:36:12.405Z,5.13
2023-03-05T15:38:41.013Z,5.11
2023-03-05T15:41:08.303Z,5.12
2023-03-05T15:43:36.980Z,5.07
2023-03-05T15:46:05.267Z,4.98
2023-03-05T15:48:32.520Z,5.02
2023-03-05T15:50:59.723Z,4.95
2023-03-05T15:53:26.886Z,4.97
2023-03-05T15:55:55.650Z,4.97
2023-03-05T15:58:22.872Z,4.61
2023-03-05T16:00:50.155Z,4.52
2023-03-05T16:03:17.558Z,4.37
2023-03-05T16:05:44.780Z,4.29
2023-03-05T16:08:12.375Z,4.10
2023-03-05T16:10:40.515Z,3.97
2023-03-05T16:13:12.588Z,3.99
2023-03-05T16:15:41.441Z,4.12
2023-03-05T16:18:13.925Z,4.14
2023-03-05T16:20:41.377Z,4.13
2023-03-05T16:23:08.520Z,4.16
2023-03-05T16:25:36.541Z,4.16
2023-03-05T16:28:03.807Z,4.02
2023-03-05T16:30:32.611Z,3.99
2023-03-05T16:33:00.163Z,4.09
2023-03-05T16:35:27.763Z,4.09
2023-03-05T16:37:57.375Z,4.06
2023-03-05T16:40:25.829Z,4.03
2023-03-05T16:42:53.340Z,4.01
2023-03-05T16:45:20.855Z,4.05
2023-03-05T16:47:51.923Z,3.95
2023-03-05T16:50:19.968Z,3.92
2023-03-05T16:52:47.301Z,3.88
2023-03-05T16:55:14.617Z,3.88
2023-03-05T16:57:41.838Z,3.82
2023-03-05T17:00:10.193Z,3.87
2023-03-05T17:02:37.494Z,3.89
2023-03-05T17:05:06.619Z,3.88
2023-03-05T17:07:33.816Z,3.82
2023-03-05T17:10:01.026Z,3.74
2023-03-05T17:12:28.242Z,3.74
2023-03-05T17:14:55.446Z,3.73
2023-03-05T17:17:22.635Z,3.69
2023-03-05T17:19:49.786Z,3.67
2023-03-05T17:22:18.386Z,3.67
2023-03-05T17:24:45.542Z,3.62
2023-03-05T17:27:12.716Z,3.57
2023-03-05T17:29:40.001Z,3.56
2023-03-05T17:32:07.256Z,3.54
2023-03-05T17:34:36.686Z,3.51
2023-03-05T17:37:05.065Z,3.45
2023-03-05T17:39:34.076Z,3.37
2023-03-05T17:42:01.353Z,3.32
2023-03-05T17:44:28.667Z,3.31
2023-03-05T17:46:56.532Z,3.27
2023-03-05T17:49:23.743Z,3.26
2023-03-05T17:51:50.919Z,3.17
2023-03-05T17:54:18.355Z,3.17
2023-03-05T17:56:46.906Z,3.22
2023-03-05T17:59:14.498Z,3.19
2023-03-05T18:01:42.180Z,3.14
2023-03-05T18:04:09.428Z,3.10
2023-03-05T18:06:36.740Z,3.07
2023-03-05T18:09:03.958Z,3.05
2023-03-05T18:11:31.107Z,3.05
2023-03-05T18:13:59.717Z,2.97
2023-03-05T18:16:27.026Z,2.88
2023-03-05T18:18:54.303Z,2.87
2023-03-05T18:21:23.167Z,2.83
2023-03-05T18:23:51.469Z,2.88
2023-03-05T18:26:19.073Z,2.86
2023-03-05T18:28:46.377Z,2.86
2023-03-05T18:31:15.007Z,2.89
2023-03-05T18:33:42.986Z,2.88
2023-03-05T18:36:10.990Z,2.84
2023-03-05T18:38:38.286Z,2.86
2023-03-05T18:41:05.951Z,2.81
2023-03-05T18:43:33.272Z,2.83
2023-03-05T18:46:00.538Z,2.80
2023-03-05T18:48:29.086Z,2.81
2023-03-05T18:50:56.379Z,2.83
2023-03-05T18:53:23.566Z,2.84
2023-03-05T18:55:52.228Z,2.83
2023-03-05T18:58:19.500Z,2.86
2023-03-05T19:00:46.865Z,2.89
2023-03-05T19:03:14.584Z,2.89
2023-03-05T19:05:43.275Z,2.90
2023-03-05T19:08:11.165Z,2.88
2023-03-05T19:10:38.606Z,2.88
2023-03-05T19:13:36.125Z,2.88
2023-03-05T19:16:07.841Z,2.86
2023-03-05T19:18:41.994Z,2.88
2023-03-05T19:21:20.039Z,2.85
2023-03-05T19:23:47.443Z,2.85
2023-03-05T19:26:15.197Z,2.82
2023-03-05T19:28:43.216Z,2.79
2023-03-05T19:31:10.982Z,2.81
2023-03-05T19:33:38.706Z,2.78
2023-03-05T19:36:08.798Z,2.77
2023-03-05T19:38:37.972Z,2.78
2023-03-05T19:41:06.770Z,2.80
2023-03-05T19:43:34.705Z,2.75
2023-03-05T19:46:03.321Z,2.78
2023-03-05T19:48:32.048Z,2.77
2023-03-05T19:50:59.638Z,2.75
2023-03-05T19:53:27.142Z,2.69
2023-03-05T19:55:56.664Z,2.62
2023-03-05T19:58:24.759Z,2.60
2023-03-05T20:00:53.604Z,2.60
2023-03-05T20:03:24.382Z,2.60
2023-03-05T20:05:52.082Z,2.57
2023-03-05T20:08:21.389Z,2.57
2023-03-05T20:10:49.081Z,2.48
2023-03-05T20:13:18.324Z,2.48
2023-03-05T20:15:46.366Z,2.52
2023-03-05T20:18:13.821Z,2.50
2023-03-05T20:20:41.827Z,2.49
2023-03-05T20:23:10.032Z,2.45
2023-03-05T20:25:38.580Z,2.41
2023-03-05T20:28:06.394Z,2.32
2023-03-05T20:30:35.778Z,2.35
2023-03-05T20:33:03.752Z,2.36
2023-03-05T20:35:31.676Z,2.38
2023-03-05T20:38:17.600Z,2.38
2023-03-05T20:40:45.347Z,2.39
2023-03-05T20:43:13.323Z,2.38
2023-03-05T20:45:42.780Z,2.38
2023-03-05T20:48:10.847Z,2.36
2023-03-05T20:50:38.691Z,2.37
2023-03-05T20:53:06.512Z,2.36
2023-03-05T20:55:34.042Z,2.30
2023-03-05T20:58:01.844Z,2.29
2023-03-05T21:00:29.487Z,2.32
2023-03-05T21:02:58.986Z,2.32
2023-03-05T21:05:29.239Z,2.35
2023-03-05T21:07:59.976Z,2.38
2023-03-05T21:10:28.179Z,2.36
2023-03-05T21:12:56.673Z,2.38
2023-03-05T21:15:27.484Z,2.36
2023-03-05T21:17:57.286Z,2.32
2023-03-05T21:20:28.500Z,2.38
2023-03-05T21:22:56.762Z,2.37
2023-03-05T21:25:26.770Z,2.38
2023-03-05T21:27:56.127Z,2.38
2023-03-05T21:30:28.579Z,2.38
2023-03-05T21:32:56.520Z,2.37
2023-03-05T21:35:24.380Z,2.40
2023-03-05T21:37:53.306Z,2.39
2023-03-05T21:40:23.053Z,2.33
2023-03-05T21:42:50.478Z,2.31
2023-03-05T21:45:20.051Z,2.35
2023-03-05T21:47:48.636Z,2.36
2023-03-05T21:50:17.229Z,2.36
2023-03-05T21:52:45.179Z,2.37
2023-03-05T21:55:16.853Z,2.34
2023-03-05T21:57:45.394Z,2.29
2023-03-05T22:00:14.949Z,2.26
2023-03-05T22:02:43.169Z,2.28
2023-03-05T22:05:13.139Z,2.23
2023-03-05T22:07:40.498Z,2.18
2023-03-05T22:10:10.511Z,2.16
2023-03-05T22:13:13.180Z,2.08
2023-03-05T22:15:46.875Z,2.05
2023-03-05T22:18:15.350Z,2.05
2023-03-05T22:20:42.807Z,2.04
2023-03-05T22:23:10.544Z,1.99
2023-03-05T22:25:38.091Z,2.01
2023-03-05T22:28:05.627Z,2.02
2023-03-05T22:30:32.999Z,2.00
2023-03-05T22:33:02.055Z,2.00
2023-03-05T22:35:29.542Z,2.02
2023-03-05T22:37:58.171Z,2.00
2023-03-05T22:40:25.526Z,1.96
2023-03-05T22:42:52.743Z,1.95
2023-03-05T22:45:20.170Z,1.94
2023-03-05T22:47:48.988Z,1.91
2023-03-05T22:50:18.208Z,1.94
2023-03-05T22:52:45.396Z,1.95
2023-03-05T22:55:14.500Z,1.96
2023-03-05T22:57:42.311Z,2.00
2023-03-05T23:00:12.283Z,1.99
2023-03-05T23:02:39.600Z,1.95
2023-03-05T23:05:07.799Z,1.95
2023-03-05T23:07:38.563Z,1.94
2023-03-05T23:10:09.597Z,1.95
2023-03-05T23:12:40.066Z,1.95
2023-03-05T23:15:09.637Z,1.89
2023-03-05T23:17:36.889Z,1.87
2023-03-05T23:20:05.601Z,1.84
2023-03-05T23:22:32.931Z,1.89
2023-03-05T23:25:01.618Z,1.90
2023-03-05T23:27:28.822Z,1.95
2023-03-05T23:30:11.995Z,1.95
2023-03-05T23:32:39.265Z,1.94
2023-03-05T23:35:08.959Z,1.90
2023-03-05T23:37:36.377Z,1.90
2023-03-05T23:40:06.656Z,1.90
2023-03-05T23:42:33.835Z,1.84
2023-03-05T23:45:01.093Z,1.88
2023-03-05T23:47:28.364Z,1.85
2023-03-05T23:49:55.565Z,1.84
2023-03-05T23:52:22.775Z,1.86
2023-03-05T23:54:49.947Z,1.83
2023-03-05T23:57:18.484Z,1.75
2023-03-05T23:59:45.685Z,1.74
